Time;durP1;ratioP1;P1;durP2;ratioP2;P2;SDS_P1;SDS_P2;PMS_P1;PMS_P2;Temp;Humidity;BMP_temperature;BMP_pressure;BME280_temperature;BME280_humidity;BME280_pressure;Samples;Min_cycle;Max_cycle;Signal;HPM_P1;HPM_P2
2022/01/17 00:03:01;;;;;;;16.95;11.30;;;;;;;1.77;86.20;100068.13;3323274;85;21035;-73
2022/01/17 00:07:52;;;;;;;20.35;13.00;;;;;;;1.81;86.18;100058.46;3340495;85;21491;-72
2022/01/17 00:12:45;;;;;;;20.05;13.43;;;;;;;1.84;86.22;100038.47;3349417;83;21780;-73
2022/01/17 00:17:40;;;;;;;22.48;15.38;;;;;;;1.85;86.40;100020.59;3356859;83;20974;-74
2022/01/17 00:22:29;;;;;;;22.37;14.53;;;;;;;1.87;86.31;100015.12;3316041;84;21008;-74
2022/01/17 00:27:20;;;;;;;19.98;13.65;;;;;;;1.88;86.47;100006.63;3340730;84;21034;-73
2022/01/17 00:32:12;;;;;;;19.25;12.23;;;;;;;1.90;86.60;99989.61;3358119;83;21420;-74
2022/01/17 00:37:03;;;;;;;24.00;15.00;;;;;;;1.94;86.71;99992.31;3381483;84;21212;-74
2022/01/17 00:41:54;;;;;;;24.12;16.12;;;;;;;1.97;86.59;99969.33;3292755;84;20949;-74
2022/01/17 00:46:46;;;;;;;25.95;15.63;;;;;;;1.98;86.52;99988.63;3331508;82;20931;-73
2022/01/17 00:51:37;;;;;;;22.02;13.40;;;;;;;2.02;86.80;99958.85;3333220;82;21544;-73
2022/01/17 00:56:28;;;;;;;26.07;16.30;;;;;;;2.06;86.65;99951.77;3359248;82;21078;-73
2022/01/17 01:01:19;;;;;;;21.57;14.95;;;;;;;2.09;86.60;99930.07;3366615;83;21174;-74
2022/01/17 01:06:11;;;;;;;24.40;15.72;;;;;;;2.11;86.50;99933.59;3388572;83;20943;-74
2022/01/17 01:11:02;;;;;;;25.00;15.32;;;;;;;2.15;86.52;99927.76;3400330;82;20931;-73
2022/01/17 01:21:20;;;;;;;24.95;14.63;;;;;;;2.22;86.60;99912.20;3361505;84;22151;-74
2022/01/17 01:30:54;;;;;;;25.62;16.60;;;;;;;2.27;86.80;99893.59;3323071;84;21038;-73
2022/01/17 01:35:46;;;;;;;26.15;16.80;;;;;;;2.26;87.10;99887.98;3301983;84;21027;-74
2022/01/17 01:40:38;;;;;;;26.80;15.63;;;;;;;2.26;87.33;99867.89;3239754;83;21035;-74
2022/01/17 01:45:30;;;;;;;26.07;17.27;;;;;;;2.25;87.31;99854.58;3196822;86;20968;-74
2022/01/17 01:50:22;;;;;;;28.07;17.12;;;;;;;2.24;87.44;99849.87;3212294;86;21086;-73
2022/01/17 01:55:17;;;;;;;25.92;16.73;;;;;;;2.24;87.63;99829.34;3183123;89;21072;-73
2022/01/17 02:00:12;;;;;;;27.07;16.73;;;;;;;2.24;88.24;99828.48;3242573;86;20988;-74
2022/01/17 02:05:04;;;;;;;26.25;17.35;;;;;;;2.26;88.23;99832.84;3244463;86;20952;-73
2022/01/17 02:09:56;;;;;;;29.10;18.55;;;;;;;2.27;88.45;99827.29;3286527;86;21019;-73
2022/01/17 02:14:50;;;;;;;27.73;18.30;;;;;;;2.26;88.09;99814.88;3250084;86;22471;-74
2022/01/17 02:19:45;;;;;;;28.80;17.65;;;;;;;2.26;88.17;99798.21;3289433;86;21189;-74
2022/01/17 02:24:34;;;;;;;27.73;16.37;;;;;;;2.28;88.15;99781.18;3294762;84;21448;-73
2022/01/17 02:29:26;;;;;;;25.05;17.67;;;;;;;2.31;88.23;99767.99;3291844;86;20988;-73
2022/01/17 02:34:17;;;;;;;32.05;18.02;;;;;;;2.35;88.22;99754.47;3247476;86;20987;-75
2022/01/17 02:39:08;;;;;;;28.05;17.82;;;;;;;2.38;88.33;99735.31;3266646;85;22021;-74
2022/01/17 02:44:02;;;;;;;25.08;16.12;;;;;;;2.43;88.36;99737.62;3243162;86;21010;-74
2022/01/17 02:48:58;;;;;;;26.12;17.15;;;;;;;2.47;88.21;99724.11;3222347;86;20980;-74
2022/01/17 02:53:50;;;;;;;29.15;18.90;;;;;;;2.48;88.16;99716.86;3248642;85;21474;-73
2022/01/17 02:58:41;;;;;;;29.42;19.82;;;;;;;2.51;88.11;99692.59;3271061;85;21813;-73
2022/01/17 03:03:33;;;;;;;27.45;19.12;;;;;;;2.55;88.08;99696.98;3274676;86;21168;-74
2022/01/17 03:08:29;;;;;;;32.78;18.80;;;;;;;2.59;88.01;99687.27;3288224;86;21496;-73
2022/01/17 03:13:26;;;;;;;27.85;17.90;;;;;;;2.65;87.89;99657.98;3270007;86;21040;-74
2022/01/17 03:18:17;;;;;;;27.90;18.87;;;;;;;2.72;87.76;99653.02;3309597;86;28745;-73
2022/01/17 03:23:09;;;;;;;30.65;19.70;;;;;;;2.75;87.58;99645.42;3277058;84;20937;-73
2022/01/17 03:28:01;;;;;;;23.62;16.10;;;;;;;2.81;87.39;99627.66;3267251;86;21129;-74
2022/01/17 03:32:53;;;;;;;22.93;15.32;;;;;;;2.83;87.27;99630.72;3243030;86;20952;-74
2022/01/17 03:37:44;;;;;;;24.10;16.73;;;;;;;2.86;87.05;99621.84;3238075;86;21026;-74
2022/01/17 03:42:36;;;;;;;21.42;15.30;;;;;;;2.93;86.94;99612.60;3234467;87;21490;-73
2022/01/17 03:47:27;;;;;;;25.27;14.63;;;;;;;2.98;86.76;99613.61;3203674;87;21017;-73
2022/01/17 03:52:18;;;;;;;20.70;12.40;;;;;;;3.03;86.55;99620.19;3131920;88;21010;-73
2022/01/17 03:57:09;;;;;;;24.02;15.20;;;;;;;3.10;86.38;99614.83;3175514;89;21086;-74
2022/01/17 04:02:02;;;;;;;20.85;13.20;;;;;;;3.13;86.26;99606.80;3147133;89;21019;-73
2022/01/17 04:06:54;;;;;;;20.52;13.80;;;;;;;3.18;86.04;99592.78;3143746;90;21004;-74
2022/01/17 04:11:45;;;;;;;18.77;13.85;;;;;;;3.21;85.88;99565.91;3153523;89;21049;-74
2022/01/17 04:16:36;;;;;;;21.62;13.20;;;;;;;3.25;85.80;99565.16;3166132;88;21432;-73
2022/01/17 04:21:33;;;;;;;21.37;13.32;;;;;;;3.27;85.85;99544.23;3184100;88;22065;-74
2022/01/17 04:26:20;;;;;;;22.52;13.88;;;;;;;3.23;86.08;99512.45;3156738;88;20988;-74
2022/01/17 04:31:11;;;;;;;21.20;13.48;;;;;;;3.20;86.15;99501.22;3147142;88;21034;-73
2022/01/17 04:36:06;;;;;;;18.87;11.70;;;;;;;3.18;86.32;99483.62;3100522;91;21708;-74
2022/01/17 04:41:04;;;;;;;20.88;12.82;;;;;;;3.17;86.38;99466.48;3179305;86;21687;-74
2022/01/17 04:45:51;;;;;;;26.17;14.75;;;;;;;3.15;86.50;99446.28;3251416;86;21440;-74
2022/01/17 04:50:43;;;;;;;20.80;13.58;;;;;;;3.15;86.72;99442.43;3227104;87;20982;-73
2022/01/17 04:55:36;;;;;;;15.98;11.63;;;;;;;3.14;86.82;99427.87;3261296;87;21004;-74
2022/01/17 05:00:27;;;;;;;20.20;12.75;;;;;;;3.12;86.93;99425.68;3281278;87;21291;-73
2022/01/17 05:05:19;;;;;;;18.35;13.43;;;;;;;3.13;87.02;99435.11;3235047;86;21202;-73
2022/01/17 05:10:15;;;;;;;20.77;11.60;;;;;;;3.12;87.12;99395.72;3231412;87;21020;-73
2022/01/17 05:15:17;;;;;;;17.60;11.50;;;;;;;3.15;86.92;99392.34;3234582;87;20905;-73
2022/01/17 05:20:06;;;;;;;16.87;10.68;;;;;;;3.20;86.72;99352.23;3231849;87;27185;-73
2022/01/17 05:24:58;;;;;;;13.65;9.73;;;;;;;3.24;86.44;99374.20;3244914;87;20973;-73
2022/01/17 05:29:50;;;;;;;12.60;9.35;;;;;;;3.29;86.32;99360.20;3240459;87;21223;-73
2022/01/17 05:34:41;;;;;;;18.25;11.15;;;;;;;3.36;85.85;99353.09;3219776;87;21062;-73
2022/01/17 05:39:34;;;;;;;14.80;10.10;;;;;;;3.41;85.56;99343.77;3297807;86;21480;-73
2022/01/17 05:44:25;;;;;;;12.18;9.00;;;;;;;3.50;85.17;99320.41;3237738;87;21517;-72
2022/01/17 05:49:17;;;;;;;15.25;9.08;;;;;;;3.53;84.93;99280.23;3287199;87;21028;-74
2022/01/17 05:54:08;;;;;;;11.65;8.00;;;;;;;3.57;84.84;99281.17;3259361;87;21998;-73
2022/01/17 05:59:00;;;;;;;14.10;9.53;;;;;;;3.60;84.81;99290.24;3226012;87;21027;-73
2022/01/17 06:03:52;;;;;;;14.00;8.78;;;;;;;3.63;84.55;99269.72;3256484;87;21612;-72
2022/01/17 06:08:43;;;;;;;14.10;8.50;;;;;;;3.64;84.53;99241.91;3254658;87;20996;-73
2022/01/17 06:13:34;;;;;;;12.18;8.58;;;;;;;3.65;84.36;99233.38;3226720;87;21044;-73
2022/01/17 06:18:25;;;;;;;12.13;7.35;;;;;;;3.68;84.39;99221.00;3265678;87;21916;-74
2022/01/17 06:23:16;;;;;;;10.05;6.62;;;;;;;3.70;83.94;99220.21;3233064;87;21016;-73
2022/01/17 06:28:08;;;;;;;9.83;6.60;;;;;;;3.71;83.72;99179.52;3257245;86;21747;-72
2022/01/17 06:32:59;;;;;;;10.50;5.50;;;;;;;3.76;83.66;99168.91;3280510;87;20984;-73
2022/01/17 06:37:51;;;;;;;7.47;5.62;;;;;;;3.80;83.73;99178.41;3281847;87;21103;-73
2022/01/17 06:42:42;;;;;;;9.13;6.22;;;;;;;3.75;83.88;99138.88;3244779;87;22622;-72
2022/01/17 06:47:36;;;;;;;10.03;6.47;;;;;;;3.69;84.27;99129.78;3252780;87;20945;-73
2022/01/17 06:52:27;;;;;;;8.13;5.75;;;;;;;3.68;84.36;99112.61;3227389;87;20949;-72
2022/01/17 06:57:19;;;;;;;9.53;5.50;;;;;;;3.68;84.35;99083.48;3195193;87;20960;-73
2022/01/17 07:02:11;;;;;;;7.60;5.45;;;;;;;3.69;84.21;99074.95;3256865;86;20976;-74
2022/01/17 07:07:03;;;;;;;9.53;5.22;;;;;;;3.70;84.29;99055.70;3281811;87;21472;-73
2022/01/17 07:11:58;;;;;;;7.65;4.83;;;;;;;3.76;84.13;99066.08;3225498;87;20991;-73
2022/01/17 07:16:47;;;;;;;9.13;5.60;;;;;;;3.79;84.02;99111.13;3232025;86;21027;-73
2022/01/17 07:21:38;;;;;;;9.23;4.53;;;;;;;3.82;83.78;99112.45;3285730;87;20979;-74
2022/01/17 07:26:29;;;;;;;8.73;5.42;;;;;;;3.86;83.79;99080.38;3191570;87;21516;-74
2022/01/17 07:31:20;;;;;;;7.17;4.10;;;;;;;3.86;83.58;99068.38;3233693;87;21038;-73
2022/01/17 07:36:17;;;;;;;6.45;4.83;;;;;;;3.89;83.65;99070.15;3259948;87;21066;-73
2022/01/17 07:41:05;;;;;;;7.37;4.30;;;;;;;3.89;83.70;99065.01;3227469;87;22239;-73
2022/01/17 07:46:18;;;;;;;6.30;3.90;;;;;;;3.89;83.64;99022.16;3236454;87;20995;-72
2022/01/17 07:51:01;;;;;;;6.97;3.75;;;;;;;3.87;84.10;98984.41;3225975;87;21637;-72
2022/01/17 07:55:52;;;;;;;5.42;3.33;;;;;;;3.81;84.46;98971.91;3170253;89;21348;-72
2022/01/17 08:00:43;;;;;;;4.15;3.30;;;;;;;3.76;84.49;98928.54;3219511;89;21011;-72
2022/01/17 08:05:34;;;;;;;6.55;3.95;;;;;;;3.75;84.60;98848.83;3221574;87;21018;-72
2022/01/17 08:10:25;;;;;;;4.87;3.75;;;;;;;3.75;84.62;98890.81;3174680;88;21109;-72
2022/01/17 08:15:17;;;;;;;5.08;3.77;;;;;;;3.74;84.86;98890.39;3194197;87;20971;-73
2022/01/17 08:20:09;;;;;;;4.58;3.10;;;;;;;3.76;84.98;98864.28;3219517;88;21383;-73
2022/01/17 08:25:00;;;;;;;7.08;2.95;;;;;;;3.76;85.07;98904.55;3164291;88;20970;-73
2022/01/17 08:29:51;;;;;;;7.50;3.30;;;;;;;3.78;85.36;98878.02;3173255;89;20984;-74
2022/01/17 08:34:42;;;;;;;3.37;2.65;;;;;;;3.80;85.25;98880.61;3173244;88;21002;-73
2022/01/17 08:39:33;;;;;;;7.50;2.83;;;;;;;3.81;85.37;98832.22;3141427;89;21033;-72
2022/01/17 08:44:25;;;;;;;4.17;2.17;;;;;;;3.80;85.39;98817.20;3165237;88;21972;-74
2022/01/17 08:49:17;;;;;;;7.92;3.08;;;;;;;3.85;85.18;98797.98;3135504;89;20979;-73
2022/01/17 08:54:08;;;;;;;6.72;2.77;;;;;;;3.93;84.69;98792.94;3128933;89;20991;-73
2022/01/17 08:59:01;;;;;;;6.85;2.98;;;;;;;3.99;84.47;98782.31;3159013;89;21031;-74
2022/01/17 09:03:54;;;;;;;6.00;2.62;;;;;;;4.01;84.32;98767.77;3136886;89;20967;-73
2022/01/17 09:08:45;;;;;;;1.05;0.85;;;;;;;3.99;84.77;98967.90;3146002;89;21176;-74
2022/01/17 09:13:36;;;;;;;1.40;0.90;;;;;;;3.33;82.58;99098.67;3129851;89;21262;-74
2022/01/17 09:18:28;;;;;;;7.28;3.25;;;;;;;2.39;83.66;99098.31;3137404;88;21514;-74
2022/01/17 09:23:20;;;;;;;4.15;2.05;;;;;;;1.96;83.61;99103.25;3142863;89;21549;-73
2022/01/17 09:28:11;;;;;;;5.75;2.17;;;;;;;1.54;85.52;99141.02;3128305;89;21712;-75
2022/01/17 09:33:03;;;;;;;3.98;1.92;;;;;;;1.32;85.78;99149.38;3135366;89;21561;-75
2022/01/17 09:37:54;;;;;;;3.65;2.08;;;;;;;1.29;85.65;99147.13;3137672;89;21556;-73
2022/01/17 09:42:47;;;;;;;2.47;1.30;;;;;;;1.30;85.38;99159.09;3224024;86;20968;-74
2022/01/17 09:47:40;;;;;;;3.08;1.60;;;;;;;1.25;85.08;99160.65;3277698;85;21524;-74
2022/01/17 09:52:36;;;;;;;2.90;1.62;;;;;;;1.26;84.98;99161.98;3277227;86;20991;-74
2022/01/17 09:57:31;;;;;;;3.60;2.25;;;;;;;1.33;85.09;99157.49;3261191;86;21267;-73
2022/01/17 10:02:22;;;;;;;2.27;1.27;;;;;;;1.44;84.61;99151.81;3224575;86;21442;-74
2022/01/17 10:07:13;;;;;;;1.35;1.05;;;;;;;1.38;84.23;99158.92;3282395;86;21016;-72
2022/01/17 10:12:12;;;;;;;1.65;0.90;;;;;;;1.35;84.44;99154.98;3290570;85;21027;-72
2022/01/17 10:17:12;;;;;;;2.50;1.00;;;;;;;1.36;83.91;99157.12;3244447;86;20990;-77
2022/01/17 10:22:13;;;;;;;1.55;1.12;;;;;;;1.38;84.05;99157.64;3235304;86;21571;-72
2022/01/17 10:27:19;;;;;;;3.20;1.15;;;;;;;1.37;83.81;99167.41;3176533;87;20991;-73
2022/01/17 10:37:28;;;;;;;2.12;1.20;;;;;;;1.33;83.48;99179.67;3257059;87;20991;-73
2022/01/17 10:42:35;;;;;;;;;;;;;;;1.38;83.64;99192.21;3241384;86;21044;-73
2022/01/17 10:47:28;;;;;;;2.12;1.10;;;;;;;1.46;83.27;99184.31;3261510;87;22077;-74
2022/01/17 10:52:42;;;;;;;3.70;1.50;;;;;;;1.58;82.92;99209.85;3222063;86;21480;-72
2022/01/17 10:57:39;;;;;;;1.40;1.30;;;;;;;1.77;82.24;99228.77;3236299;86;20953;-70
2022/01/17 11:02:30;;;;;;;2.10;1.90;;;;;;;2.04;82.26;99244.05;3228286;86;20953;-70
2022/01/17 11:07:21;;;;;;;1.75;1.22;;;;;;;2.30;81.77;99246.44;3187825;86;20952;-73
2022/01/17 11:12:15;;;;;;;2.10;1.27;;;;;;;2.29;80.51;99265.23;3244825;86;21635;-71
2022/01/17 11:17:26;;;;;;;3.77;1.62;;;;;;;2.19;80.93;99283.33;3219183;87;21038;-71
2022/01/17 11:22:17;;;;;;;4.03;1.55;;;;;;;1.87;81.16;99299.95;3231028;86;20977;-74
2022/01/17 11:27:08;;;;;;;3.55;1.90;;;;;;;1.66;81.44;99283.95;3292252;85;21017;-72
2022/01/17 11:31:59;;;;;;;4.20;1.70;;;;;;;1.99;81.10;99276.80;3268848;85;21591;-72
2022/01/17 11:36:53;;;;;;;3.45;2.50;;;;;;;3.59;79.23;99284.63;3300158;85;21800;-72
2022/01/17 11:41:50;;;;;;;3.10;2.05;;;;;;;5.46;76.01;99269.16;3319666;85;20965;-72
2022/01/17 11:46:52;;;;;;;8.10;3.70;;;;;;;7.53;72.42;99294.16;3260378;85;20944;-75
2022/01/17 11:51:46;;;;;;;3.90;2.15;;;;;;;8.28;71.08;99297.56;3279033;85;21611;-77
2022/01/17 11:56:48;;;;;;;5.25;2.52;;;;;;;9.18;67.29;99305.53;3267069;85;20972;-75
2022/01/17 12:01:39;;;;;;;3.33;1.95;;;;;;;9.21;66.63;99327.14;3289408;86;21243;-75
2022/01/17 12:06:36;;;;;;;4.42;2.35;;;;;;;7.29;68.28;99356.03;3295494;84;21459;-72
2022/01/17 12:11:31;;;;;;;5.90;2.92;;;;;;;5.79;71.31;99381.36;3266306;85;20964;-72
2022/01/17 12:16:33;;;;;;;3.92;1.87;;;;;;;4.63;72.48;99398.27;3269193;86;21027;-72
2022/01/17 12:21:32;;;;;;;4.20;1.77;;;;;;;3.92;73.03;99432.79;3312792;85;20959;-73
2022/01/17 12:26:32;;;;;;;3.90;2.00;;;;;;;3.54;73.69;99448.14;3270126;86;21179;-73
2022/01/17 12:31:47;;;;;;;4.40;2.00;;;;;;;3.31;73.92;99469.39;3317516;85;20987;-73
2022/01/17 12:36:41;;;;;;;3.72;2.67;;;;;;;3.10;74.29;99444.03;3293650;85;21453;-72
2022/01/17 12:41:39;;;;;;;1.35;1.20;;;;;;;3.15;74.16;99445.89;3269456;85;20968;-71
2022/01/17 12:46:30;;;;;;;2.98;1.70;;;;;;;3.05;74.03;99443.48;3291611;85;21011;-73
2022/01/17 12:51:23;;;;;;;3.73;1.80;;;;;;;3.04;74.63;99477.70;3294847;86;22130;-73
2022/01/17 12:56:14;;;;;;;4.37;2.85;;;;;;;3.08;73.49;99475.20;3306287;85;21942;-71
2022/01/17 13:01:15;;;;;;;6.78;1.65;;;;;;;3.03;73.90;99486.23;3278486;86;20991;-70
2022/01/17 13:06:13;;;;;;;5.05;2.00;;;;;;;2.92;73.33;99503.04;3293529;85;21469;-70
2022/01/17 13:11:15;;;;;;;;;;;;;;;2.89;73.39;99490.53;3272787;85;20971;-72
2022/01/17 13:16:07;;;;;;;4.47;1.67;;;;;;;2.67;73.10;99520.30;3271714;85;21009;-72
2022/01/17 13:21:01;;;;;;;3.30;1.92;;;;;;;2.58;72.90;99545.69;3291895;85;21414;-73
2022/01/17 13:25:53;;;;;;;4.10;1.72;;;;;;;2.55;73.40;99550.72;3292808;86;21019;-73
2022/01/17 13:30:45;;;;;;;3.30;1.80;;;;;;;2.45;72.58;99582.05;3316377;85;20952;-75
2022/01/17 13:35:43;;;;;;;2.65;1.62;;;;;;;2.32;73.01;99570.95;3292882;86;21016;-73
2022/01/17 13:40:33;;;;;;;4.83;1.75;;;;;;;2.27;72.36;99583.23;3269786;85;21603;-70
2022/01/17 13:45:43;;;;;;;3.90;1.82;;;;;;;2.18;72.93;99597.04;3309180;85;20987;-71
2022/01/17 13:50:45;;;;;;;3.72;2.10;;;;;;;2.07;72.88;99629.99;3313279;85;21023;-73
2022/01/17 13:55:43;;;;;;;9.55;2.10;;;;;;;2.04;72.96;99646.58;3297961;84;21472;-72
2022/01/17 14:00:47;;;;;;;6.28;2.40;;;;;;;2.06;73.30;99661.59;3301235;85;21576;-73
2022/01/17 14:05:43;;;;;;;2.83;1.77;;;;;;;2.06;72.68;99656.89;3313832;85;21128;-72
2022/01/17 14:10:35;;;;;;;3.98;2.37;;;;;;;2.05;72.36;99669.23;3270282;85;21008;-73
2022/01/17 14:15:32;;;;;;;4.22;1.98;;;;;;;2.00;72.11;99678.03;3246786;85;20980;-74
2022/01/17 14:20:28;;;;;;;5.33;2.08;;;;;;;2.02;71.57;99713.60;3296911;85;21621;-73
2022/01/17 14:25:25;;;;;;;3.33;1.45;;;;;;;2.02;71.83;99713.98;3278262;86;20967;-71
2022/01/17 14:30:27;;;;;;;3.57;1.70;;;;;;;2.02;71.37;99717.45;3271814;85;21474;-71
2022/01/17 14:35:18;;;;;;;4.60;2.70;;;;;;;1.94;71.51;99734.66;3292323;85;20996;-72
2022/01/17 14:40:11;;;;;;;4.35;1.50;;;;;;;1.85;71.53;99732.21;3273047;85;21527;-71
2022/01/17 14:45:12;;;;;;;4.47;1.62;;;;;;;1.76;71.02;99747.27;3266201;85;21011;-72
2022/01/17 14:50:05;;;;;;;4.25;1.45;;;;;;;1.70;71.04;99784.21;3315867;85;21042;-72
2022/01/17 14:59:57;;;;;;;4.87;1.70;;;;;;;1.53;70.65;99832.23;3266617;86;21020;-71
2022/01/17 15:04:43;;;;;;;3.80;1.47;;;;;;;1.38;70.22;99838.02;3287051;85;20967;-75
2022/01/17 15:09:35;;;;;;;7.35;2.10;;;;;;;1.24;71.36;99870.78;3292938;86;20976;-73
2022/01/17 15:14:27;;;;;;;6.05;1.32;;;;;;;1.13;71.54;99904.50;3289092;85;21084;-73
2022/01/17 15:19:19;;;;;;;4.08;2.33;;;;;;;1.06;71.82;99906.75;3307013;85;21529;-74
2022/01/17 15:24:10;;;;;;;2.50;1.50;;;;;;;0.99;72.11;99923.94;3312458;84;21021;-74
2022/01/17 15:29:03;;;;;;;1.67;1.35;;;;;;;0.92;72.37;99936.87;3270171;85;21074;-74
2022/01/17 15:33:54;;;;;;;3.65;1.52;;;;;;;0.85;71.55;99959.17;3305711;85;21003;-74
2022/01/17 15:38:45;;;;;;;6.78;2.15;;;;;;;0.82;71.89;99962.86;3291676;85;20956;-74
2022/01/17 15:43:36;;;;;;;4.53;2.15;;;;;;;0.79;71.81;99986.65;3231444;85;21877;-73
2022/01/17 15:48:28;;;;;;;4.40;2.30;;;;;;;0.82;71.53;100014.05;3274801;86;43373;-77
2022/01/17 15:53:20;;;;;;;5.40;1.70;;;;;;;0.82;71.45;100031.96;3205515;87;21023;-70
2022/01/17 15:58:11;;;;;;;2.50;1.42;;;;;;;0.78;71.23;100039.03;3233028;86;20983;-73
2022/01/17 16:03:03;;;;;;;4.67;2.10;;;;;;;0.76;71.41;100038.96;3231233;86;21008;-71
2022/01/17 16:07:55;;;;;;;2.95;1.40;;;;;;;0.71;71.51;100042.58;3207795;86;21039;-71
2022/01/17 16:12:46;;;;;;;6.55;2.45;;;;;;;0.69;71.51;100056.98;3236353;86;21043;-71
2022/01/17 16:17:38;;;;;;;6.30;1.65;;;;;;;0.65;71.56;100071.73;3229083;85;21433;-71
2022/01/17 16:22:31;;;;;;;3.58;1.72;;;;;;;0.61;71.61;100089.04;3232018;86;21469;-71
2022/01/17 16:27:22;;;;;;;5.35;1.60;;;;;;;0.57;71.49;100098.63;3242737;86;20974;-71
2022/01/17 16:32:14;;;;;;;4.45;1.60;;;;;;;0.57;71.47;100128.05;3230957;87;21051;-72
2022/01/17 16:37:06;;;;;;;4.78;1.98;;;;;;;0.55;71.88;100145.91;3254920;87;21000;-70
2022/01/17 16:41:57;;;;;;;6.90;2.33;;;;;;;0.52;72.02;100153.81;3246575;86;21559;-71
2022/01/17 16:46:48;;;;;;;4.03;1.50;;;;;;;0.47;72.04;100165.12;3280362;86;21064;-76
2022/01/17 16:51:39;;;;;;;6.35;2.40;;;;;;;0.44;72.16;100184.55;3190782;87;20967;-75
2022/01/17 16:56:30;;;;;;;4.87;1.72;;;;;;;0.40;72.13;100196.31;3221436;86;22146;-70
2022/01/17 17:01:21;;;;;;;4.65;1.87;;;;;;;0.41;72.28;100222.34;3222442;87;21471;-70
2022/01/17 17:06:12;;;;;;;8.05;2.67;;;;;;;0.48;72.05;100226.09;3220121;87;21028;-69
2022/01/17 17:11:04;;;;;;;5.80;2.60;;;;;;;0.47;72.17;100234.59;3270840;86;21020;-71
2022/01/17 17:15:57;;;;;;;4.85;2.22;;;;;;;0.48;72.04;100246.56;3250163;87;20984;-70
2022/01/17 17:20:50;;;;;;;8.75;2.27;;;;;;;0.47;72.12;100261.04;3257065;87;21366;-71
2022/01/17 17:25:44;;;;;;;6.20;2.50;;;;;;;0.44;72.14;100272.80;3247350;87;20983;-71
2022/01/17 17:30:35;;;;;;;7.28;3.98;;;;;;;0.46;72.10;100277.58;3226003;87;21946;-71
2022/01/17 17:35:26;;;;;;;6.97;1.95;;;;;;;0.53;72.03;100278.38;3231745;87;21262;-71
2022/01/17 17:40:18;;;;;;;6.95;2.58;;;;;;;0.53;71.78;100287.33;3234574;87;20988;-70
2022/01/17 17:45:10;;;;;;;4.62;1.50;;;;;;;0.50;71.57;100282.05;3205994;85;21271;-71
2022/01/17 17:50:01;;;;;;;5.92;1.72;;;;;;;0.47;71.66;100314.76;3329394;85;21109;-71
2022/01/17 17:54:52;;;;;;;6.42;2.35;;;;;;;0.50;71.38;100320.41;3287152;85;20931;-71
2022/01/17 17:59:45;;;;;;;6.25;2.27;;;;;;;0.58;71.57;100334.48;3270809;85;21283;-71
2022/01/17 18:04:36;;;;;;;11.40;3.15;;;;;;;0.64;71.63;100338.63;3283536;85;21012;-71
2022/01/17 18:09:27;;;;;;;4.20;2.60;;;;;;;0.69;71.31;100357.65;3285222;85;20956;-71
2022/01/17 18:14:18;;;;;;;3.77;1.90;;;;;;;0.75;71.15;100369.88;3284977;85;21015;-70
2022/01/17 18:19:09;;;;;;;5.53;2.72;;;;;;;0.82;71.09;100373.63;3276803;85;21051;-70
2022/01/17 18:24:01;;;;;;;9.95;3.33;;;;;;;0.85;70.58;100375.95;3299142;85;20906;-71
2022/01/17 18:28:53;;;;;;;6.37;4.12;;;;;;;0.91;70.45;100402.25;3281713;84;21124;-71
2022/01/17 18:33:45;;;;;;;6.87;3.17;;;;;;;0.95;70.78;100408.02;3285408;85;21059;-71
2022/01/17 18:38:38;;;;;;;7.47;2.50;;;;;;;0.97;70.48;100432.02;3238504;84;21018;-71
2022/01/17 18:43:29;;;;;;;7.65;2.77;;;;;;;1.00;70.26;100437.68;3283247;84;21037;-70
2022/01/17 18:48:22;;;;;;;3.20;1.95;;;;;;;0.99;70.21;100457.29;3335121;84;20972;-70
2022/01/17 18:53:14;;;;;;;7.90;2.27;;;;;;;0.91;69.92;100481.23;3335670;83;20944;-70
2022/01/17 18:58:08;;;;;;;6.58;2.40;;;;;;;0.88;69.92;100484.03;3310537;85;21792;-71
2022/01/17 19:03:00;;;;;;;9.83;3.20;;;;;;;0.90;69.96;100493.94;3307842;84;20975;-69
2022/01/17 19:07:51;;;;;;;6.20;2.70;;;;;;;0.94;69.73;100507.38;3308977;84;21080;-73
2022/01/17 19:12:42;;;;;;;8.25;2.10;;;;;;;0.90;69.12;100511.86;3313895;84;21021;-70
2022/01/17 19:17:50;;;;;;;13.53;2.62;;;;;;;0.79;68.97;100516.79;3288814;84;20908;-70
2022/01/17 19:22:30;;;;;;;15.48;6.50;;;;;;;0.69;69.23;100538.06;3297484;84;22487;-70
2022/01/17 19:27:24;;;;;;;6.75;3.05;;;;;;;0.64;69.25;100553.56;3365791;84;20984;-70
2022/01/17 19:32:16;;;;;;;7.58;3.10;;;;;;;0.59;69.31;100570.75;3330421;85;20951;-71
2022/01/17 19:37:07;;;;;;;10.82;3.92;;;;;;;0.52;69.19;100589.98;3338404;85;21161;-70
2022/01/17 19:41:59;;;;;;;6.62;2.55;;;;;;;0.45;69.39;100595.56;3306197;84;20951;-71
2022/01/17 19:46:52;;;;;;;4.87;2.30;;;;;;;0.40;69.15;100614.91;3303034;85;21090;-71
2022/01/17 19:51:43;;;;;;;5.47;3.22;;;;;;;0.36;69.58;100621.53;3267400;85;21027;-70
2022/01/17 19:56:34;;;;;;;3.80;1.37;;;;;;;0.34;69.56;100632.05;3314869;85;20952;-69
2022/01/17 20:01:25;;;;;;;8.20;2.30;;;;;;;0.30;69.06;100637.39;3323412;85;21485;-70
2022/01/17 20:06:18;;;;;;;5.53;2.20;;;;;;;0.28;69.56;100654.33;3321745;84;20979;-69
2022/01/17 20:11:09;;;;;;;5.62;2.45;;;;;;;0.25;69.65;100647.78;3290042;86;21280;-71
2022/01/17 20:16:00;;;;;;;5.80;2.60;;;;;;;0.21;69.45;100644.95;3310444;84;21477;-69
2022/01/17 20:20:51;;;;;;;6.37;2.98;;;;;;;0.18;69.64;100657.17;3275273;84;21421;-70
2022/01/17 20:25:44;;;;;;;7.72;2.30;;;;;;;0.16;69.78;100679.19;3286073;85;20965;-71
2022/01/17 20:30:37;;;;;;;5.15;2.45;;;;;;;0.11;70.07;100695.96;3279862;85;20977;-70
2022/01/17 20:35:28;;;;;;;6.87;2.72;;;;;;;0.07;70.07;100715.72;3248663;86;20945;-71
2022/01/17 20:40:20;;;;;;;5.30;2.47;;;;;;;0.10;70.21;100727.42;3271889;85;21052;-71
2022/01/17 20:45:11;;;;;;;7.28;2.72;;;;;;;0.11;70.31;100747.09;3326854;85;21021;-71
2022/01/17 20:50:05;;;;;;;7.05;2.77;;;;;;;0.08;70.37;100759.28;3312745;85;21564;-71
2022/01/17 20:54:56;;;;;;;7.72;2.52;;;;;;;0.03;70.33;100762.36;3263200;85;21008;-70
2022/01/17 20:59:48;;;;;;;6.33;2.35;;;;;;;-0.02;70.43;100784.70;3318742;84;21172;-70
2022/01/17 21:04:39;;;;;;;5.47;2.37;;;;;;;-0.07;70.47;100783.91;3306072;85;20969;-70
2022/01/17 21:09:30;;;;;;;8.15;2.83;;;;;;;-0.08;70.39;100790.70;3259959;85;21015;-71
2022/01/17 21:14:21;;;;;;;5.20;2.10;;;;;;;-0.11;70.47;100812.64;3283728;85;21402;-71
2022/01/17 21:19:12;;;;;;;7.20;3.10;;;;;;;-0.15;70.53;100817.95;3279912;85;20995;-70
2022/01/17 21:24:04;;;;;;;3.60;1.70;;;;;;;-0.20;70.62;100842.34;3268970;85;21051;-70
2022/01/17 21:28:55;;;;;;;3.72;1.60;;;;;;;-0.26;70.60;100850.92;3286931;84;21084;-70
2022/01/17 21:33:46;;;;;;;10.15;3.10;;;;;;;-0.27;70.65;100859.36;3315420;85;21019;-70
2022/01/17 21:38:38;;;;;;;11.12;2.50;;;;;;;-0.28;70.81;100875.50;3311591;85;20989;-69
2022/01/17 21:43:29;;;;;;;10.00;3.40;;;;;;;-0.31;70.95;100876.17;3300648;86;21030;-70
2022/01/17 21:48:20;;;;;;;4.78;2.65;;;;;;;-0.32;70.96;100887.20;3226273;86;21160;-69
2022/01/17 21:53:11;;;;;;;6.75;2.90;;;;;;;-0.33;71.05;100894.76;3265878;86;20963;-69
2022/01/17 21:58:03;;;;;;;5.67;2.67;;;;;;;-0.36;71.17;100900.94;3259715;86;21180;-70
2022/01/17 22:02:55;;;;;;;3.77;1.70;;;;;;;-0.40;71.12;100921.17;3268103;86;20952;-71
2022/01/17 22:07:46;;;;;;;5.80;2.87;;;;;;;-0.40;71.26;100921.58;3269997;86;21023;-70
2022/01/17 22:12:38;;;;;;;5.15;1.95;;;;;;;-0.41;71.34;100935.16;3184726;86;22492;-72
2022/01/17 22:17:30;;;;;;;3.15;1.47;;;;;;;-0.43;71.32;100932.50;3218355;87;21019;-70
2022/01/17 22:22:21;;;;;;;3.35;1.75;;;;;;;-0.44;71.36;100947.32;3244636;86;20955;-70
2022/01/17 22:27:12;;;;;;;5.65;2.70;;;;;;;-0.44;71.48;100958.81;3225135;86;21118;-70
2022/01/17 22:32:04;;;;;;;6.60;2.20;;;;;;;-0.46;71.55;100959.11;3234437;86;21620;-70
2022/01/17 22:36:56;;;;;;;4.28;1.70;;;;;;;-0.45;71.51;100962.17;3187614;86;22160;-70
2022/01/17 22:41:47;;;;;;;4.67;1.92;;;;;;;-0.46;71.48;100974.44;3253927;86;20981;-70
2022/01/17 22:46:41;;;;;;;7.92;2.27;;;;;;;-0.47;71.51;100984.55;3285605;85;20948;-70
2022/01/17 22:51:32;;;;;;;5.12;1.70;;;;;;;-0.46;71.50;100991.45;3254941;85;21518;-71
2022/01/17 22:56:23;;;;;;;5.25;2.25;;;;;;;-0.43;71.48;101017.17;3294987;85;21050;-70
2022/01/17 23:01:14;;;;;;;6.60;2.10;;;;;;;-0.48;71.57;101024.55;3244428;85;27446;-71
2022/01/17 23:06:05;;;;;;;4.87;2.45;;;;;;;-0.48;71.57;101024.55;3301280;85;21655;-70
2022/01/17 23:10:57;;;;;;;5.85;2.95;;;;;;;-0.49;71.53;101034.66;3245000;85;21031;-71
2022/01/17 23:15:50;;;;;;;6.15;1.87;;;;;;;-0.52;71.49;101033.17;3261625;85;21437;-72
2022/01/17 23:20:41;;;;;;;3.20;1.50;;;;;;;-0.53;71.45;101029.74;3248242;85;20991;-69